Terminal Aerodrome Forecast
Issued by NWS

Home | Current Version | Previous Version | Text Only | Print | Product List | Glossary On
Versions: 1 2 3 4 5 6 7 8 9 10 11 12 13
000
FTUS45 KLKN 172300
TAFTPH
TAF
KTPH 172320Z 1800/1824 20020G35KT P6SM SCT250
     FM180400 19010KT P6SM SCT120 BKN250
     FM180900 33010KT P6SM BKN100
     FM181700 21010KT P6SM SCT120=

USA.gov is the U.S. government's official web portal to all federal, state and local government web resources and services.